sensor_id;sensor_type;location;lat;lon;timestamp;P1;durP1;ratioP1;P2;durP2;ratioP2
14740;SDS011;7462;53.530;9.414;2022-10-16T00:01:21;12.97;;;9.93;;
14740;SDS011;7462;53.530;9.414;2022-10-16T00:03:51;10.47;;;8.83;;
14740;SDS011;7462;53.530;9.414;2022-10-16T00:06:20;14.53;;;9.87;;
14740;SDS011;7462;53.530;9.414;2022-10-16T00:08:49;10.17;;;8.60;;
14740;SDS011;7462;53.530;9.414;2022-10-16T00:11:18;11.90;;;8.73;;
14740;SDS011;7462;53.530;9.414;2022-10-16T00:13:50;11.57;;;9.07;;
14740;SDS011;7462;53.530;9.414;2022-10-16T00:16:19;10.10;;;8.43;;
14740;SDS011;7462;53.530;9.414;2022-10-16T00:18:47;9.53;;;7.33;;
14740;SDS011;7462;53.530;9.414;2022-10-16T00:21:16;9.13;;;7.67;;
14740;SDS011;7462;53.530;9.414;2022-10-16T00:23:46;10.50;;;6.30;;
14740;SDS011;7462;53.530;9.414;2022-10-16T00:26:17;7.77;;;6.77;;
14740;SDS011;7462;53.530;9.414;2022-10-16T00:28:47;9.33;;;6.67;;
14740;SDS011;7462;53.530;9.414;2022-10-16T00:31:17;8.37;;;5.60;;
14740;SDS011;7462;53.530;9.414;2022-10-16T00:33:46;6.27;;;5.63;;
14740;SDS011;7462;53.530;9.414;2022-10-16T00:36:15;8.10;;;5.57;;
14740;SDS011;7462;53.530;9.414;2022-10-16T00:38:44;5.70;;;4.40;;
14740;SDS011;7462;53.530;9.414;2022-10-16T00:41:14;6.87;;;4.93;;
14740;SDS011;7462;53.530;9.414;2022-10-16T00:43:45;8.30;;;4.50;;
14740;SDS011;7462;53.530;9.414;2022-10-16T00:46:16;7.87;;;4.50;;
14740;SDS011;7462;53.530;9.414;2022-10-16T00:48:48;5.43;;;4.00;;
14740;SDS011;7462;53.530;9.414;2022-10-16T00:51:21;6.37;;;4.37;;
14740;SDS011;7462;53.530;9.414;2022-10-16T00:53:53;5.80;;;4.80;;
14740;SDS011;7462;53.530;9.414;2022-10-16T00:56:22;6.77;;;3.97;;
14740;SDS011;7462;53.530;9.414;2022-10-16T00:58:51;6.17;;;4.20;;
14740;SDS011;7462;53.530;9.414;2022-10-16T01:01:20;6.60;;;3.83;;
14740;SDS011;7462;53.530;9.414;2022-10-16T01:03:48;7.13;;;3.70;;
14740;SDS011;7462;53.530;9.414;2022-10-16T01:06:22;4.20;;;3.80;;
14740;SDS011;7462;53.530;9.414;2022-10-16T01:08:55;7.17;;;3.90;;
14740;SDS011;7462;53.530;9.414;2022-10-16T01:11:36;5.63;;;3.57;;
14740;SDS011;7462;53.530;9.414;2022-10-16T01:14:15;5.00;;;3.90;;
14740;SDS011;7462;53.530;9.414;2022-10-16T01:16:52;4.23;;;3.73;;
14740;SDS011;7462;53.530;9.414;2022-10-16T01:19:26;5.60;;;3.53;;
14740;SDS011;7462;53.530;9.414;2022-10-16T01:22:08;5.90;;;3.80;;
14740;SDS011;7462;53.530;9.414;2022-10-16T01:24:38;7.83;;;3.93;;
14740;SDS011;7462;53.530;9.414;2022-10-16T01:27:10;4.07;;;3.33;;
14740;SDS011;7462;53.530;9.414;2022-10-16T01:29:41;5.70;;;3.87;;
14740;SDS011;7462;53.530;9.414;2022-10-16T01:32:16;6.77;;;3.50;;
14740;SDS011;7462;53.530;9.414;2022-10-16T01:34:49;4.80;;;3.33;;
14740;SDS011;7462;53.530;9.414;2022-10-16T01:37:21;4.40;;;3.50;;
14740;SDS011;7462;53.530;9.414;2022-10-16T01:39:56;6.27;;;3.50;;
14740;SDS011;7462;53.530;9.414;2022-10-16T01:42:30;6.77;;;3.30;;
14740;SDS011;7462;53.530;9.414;2022-10-16T01:45:02;4.37;;;2.83;;
14740;SDS011;7462;53.530;9.414;2022-10-16T01:47:34;3.73;;;3.30;;
14740;SDS011;7462;53.530;9.414;2022-10-16T01:50:04;3.80;;;2.93;;
14740;SDS011;7462;53.530;9.414;2022-10-16T01:52:34;4.27;;;3.00;;
14740;SDS011;7462;53.530;9.414;2022-10-16T01:55:06;3.10;;;2.80;;
14740;SDS011;7462;53.530;9.414;2022-10-16T01:57:38;6.27;;;3.13;;
14740;SDS011;7462;53.530;9.414;2022-10-16T02:00:11;7.37;;;2.70;;
14740;SDS011;7462;53.530;9.414;2022-10-16T02:02:41;5.30;;;2.73;;
14740;SDS011;7462;53.530;9.414;2022-10-16T02:05:16;4.40;;;2.87;;
14740;SDS011;7462;53.530;9.414;2022-10-16T02:07:49;6.27;;;2.80;;
14740;SDS011;7462;53.530;9.414;2022-10-16T02:10:17;4.80;;;2.47;;
14740;SDS011;7462;53.530;9.414;2022-10-16T02:12:48;3.30;;;2.50;;
14740;SDS011;7462;53.530;9.414;2022-10-16T02:15:22;5.70;;;2.30;;
14740;SDS011;7462;53.530;9.414;2022-10-16T02:17:50;6.43;;;2.87;;
14740;SDS011;7462;53.530;9.414;2022-10-16T02:20:19;5.73;;;3.77;;
14740;SDS011;7462;53.530;9.414;2022-10-16T02:22:52;3.93;;;2.20;;
14740;SDS011;7462;53.530;9.414;2022-10-16T02:25:24;4.20;;;2.70;;
14740;SDS011;7462;53.530;9.414;2022-10-16T02:27:59;4.23;;;2.50;;
14740;SDS011;7462;53.530;9.414;2022-10-16T02:30:32;5.23;;;2.50;;
14740;SDS011;7462;53.530;9.414;2022-10-16T02:33:04;4.50;;;2.30;;
14740;SDS011;7462;53.530;9.414;2022-10-16T02:35:34;2.93;;;2.03;;
14740;SDS011;7462;53.530;9.414;2022-10-16T02:38:04;3.87;;;2.20;;
14740;SDS011;7462;53.530;9.414;2022-10-16T02:40:33;4.63;;;2.30;;
14740;SDS011;7462;53.530;9.414;2022-10-16T02:43:03;4.53;;;2.27;;
14740;SDS011;7462;53.530;9.414;2022-10-16T02:45:32;6.80;;;2.77;;
14740;SDS011;7462;53.530;9.414;2022-10-16T02:48:00;5.30;;;2.20;;
14740;SDS011;7462;53.530;9.414;2022-10-16T02:50:28;5.17;;;2.27;;
14740;SDS011;7462;53.530;9.414;2022-10-16T02:52:56;3.57;;;1.90;;
14740;SDS011;7462;53.530;9.414;2022-10-16T02:55:24;3.53;;;2.20;;
14740;SDS011;7462;53.530;9.414;2022-10-16T02:57:54;4.20;;;2.30;;
14740;SDS011;7462;53.530;9.414;2022-10-16T03:00:23;5.47;;;2.07;;
14740;SDS011;7462;53.530;9.414;2022-10-16T03:02:51;4.27;;;2.40;;
14740;SDS011;7462;53.530;9.414;2022-10-16T03:05:20;2.40;;;1.97;;
14740;SDS011;7462;53.530;9.414;2022-10-16T03:07:52;5.50;;;2.00;;
14740;SDS011;7462;53.530;9.414;2022-10-16T03:10:20;3.57;;;2.37;;
14740;SDS011;7462;53.530;9.414;2022-10-16T03:12:49;4.33;;;2.00;;
14740;SDS011;7462;53.530;9.414;2022-10-16T03:15:17;3.67;;;2.03;;
14740;SDS011;7462;53.530;9.414;2022-10-16T03:17:46;4.27;;;1.67;;
14740;SDS011;7462;53.530;9.414;2022-10-16T03:20:14;3.03;;;1.90;;
14740;SDS011;7462;53.530;9.414;2022-10-16T03:22:42;2.73;;;1.80;;
14740;SDS011;7462;53.530;9.414;2022-10-16T03:25:10;3.00;;;1.93;;
14740;SDS011;7462;53.530;9.414;2022-10-16T03:27:39;5.67;;;2.00;;
14740;SDS011;7462;53.530;9.414;2022-10-16T03:30:07;3.87;;;1.70;;
14740;SDS011;7462;53.530;9.414;2022-10-16T03:32:36;6.33;;;2.53;;
14740;SDS011;7462;53.530;9.414;2022-10-16T03:35:06;2.63;;;1.80;;
14740;SDS011;7462;53.530;9.414;2022-10-16T03:37:35;6.20;;;1.77;;
14740;SDS011;7462;53.530;9.414;2022-10-16T03:40:03;3.80;;;2.07;;
14740;SDS011;7462;53.530;9.414;2022-10-16T03:42:32;3.93;;;1.93;;
14740;SDS011;7462;53.530;9.414;2022-10-16T03:45:00;2.63;;;1.77;;
14740;SDS011;7462;53.530;9.414;2022-10-16T03:47:28;3.20;;;1.93;;
14740;SDS011;7462;53.530;9.414;2022-10-16T03:49:56;4.33;;;2.00;;
14740;SDS011;7462;53.530;9.414;2022-10-16T03:52:26;6.17;;;2.20;;
14740;SDS011;7462;53.530;9.414;2022-10-16T03:54:54;2.80;;;1.97;;
14740;SDS011;7462;53.530;9.414;2022-10-16T03:57:22;3.97;;;1.80;;
14740;SDS011;7462;53.530;9.414;2022-10-16T03:59:51;4.27;;;1.83;;
14740;SDS011;7462;53.530;9.414;2022-10-16T04:02:19;4.07;;;2.50;;
14740;SDS011;7462;53.530;9.414;2022-10-16T04:04:47;5.43;;;2.30;;
14740;SDS011;7462;53.530;9.414;2022-10-16T04:07:15;3.17;;;2.17;;
14740;SDS011;7462;53.530;9.414;2022-10-16T04:09:44;3.07;;;2.17;;
14740;SDS011;7462;53.530;9.414;2022-10-16T04:12:13;3.93;;;1.97;;
14740;SDS011;7462;53.530;9.414;2022-10-16T04:14:41;6.33;;;2.13;;
14740;SDS011;7462;53.530;9.414;2022-10-16T04:17:09;3.60;;;2.20;;
14740;SDS011;7462;53.530;9.414;2022-10-16T04:19:37;2.90;;;2.07;;
14740;SDS011;7462;53.530;9.414;2022-10-16T04:22:05;3.33;;;2.10;;
14740;SDS011;7462;53.530;9.414;2022-10-16T04:24:33;5.73;;;2.23;;
14740;SDS011;7462;53.530;9.414;2022-10-16T04:27:02;2.83;;;2.00;;
14740;SDS011;7462;53.530;9.414;2022-10-16T04:29:31;7.27;;;2.57;;
14740;SDS011;7462;53.530;9.414;2022-10-16T04:31:59;4.33;;;2.23;;
14740;SDS011;7462;53.530;9.414;2022-10-16T04:34:27;5.37;;;2.17;;
14740;SDS011;7462;53.530;9.414;2022-10-16T04:36:55;3.13;;;2.30;;
14740;SDS011;7462;53.530;9.414;2022-10-16T04:39:23;3.13;;;2.17;;
14740;SDS011;7462;53.530;9.414;2022-10-16T04:41:51;4.13;;;2.40;;
14740;SDS011;7462;53.530;9.414;2022-10-16T04:44:20;3.80;;;2.10;;
14740;SDS011;7462;53.530;9.414;2022-10-16T04:46:49;4.00;;;2.50;;
14740;SDS011;7462;53.530;9.414;2022-10-16T04:49:17;3.77;;;2.30;;
14740;SDS011;7462;53.530;9.414;2022-10-16T04:51:46;4.87;;;2.50;;
14740;SDS011;7462;53.530;9.414;2022-10-16T04:54:14;4.17;;;2.70;;
14740;SDS011;7462;53.530;9.414;2022-10-16T04:56:42;4.27;;;2.50;;
14740;SDS011;7462;53.530;9.414;2022-10-16T04:59:13;4.47;;;2.90;;
14740;SDS011;7462;53.530;9.414;2022-10-16T05:01:43;5.83;;;2.77;;
14740;SDS011;7462;53.530;9.414;2022-10-16T05:04:11;5.50;;;3.00;;
14740;SDS011;7462;53.530;9.414;2022-10-16T05:06:41;5.27;;;3.27;;
14740;SDS011;7462;53.530;9.414;2022-10-16T05:09:09;4.67;;;3.20;;
14740;SDS011;7462;53.530;9.414;2022-10-16T05:11:38;6.20;;;3.30;;
14740;SDS011;7462;53.530;9.414;2022-10-16T05:14:06;5.97;;;3.67;;
14740;SDS011;7462;53.530;9.414;2022-10-16T05:16:34;7.60;;;4.20;;
14740;SDS011;7462;53.530;9.414;2022-10-16T05:19:03;5.37;;;3.80;;
14740;SDS011;7462;53.530;9.414;2022-10-16T05:21:51;6.13;;;4.30;;
14740;SDS011;7462;53.530;9.414;2022-10-16T05:24:19;7.00;;;4.30;;
14740;SDS011;7462;53.530;9.414;2022-10-16T05:26:47;5.87;;;4.93;;
14740;SDS011;7462;53.530;9.414;2022-10-16T05:29:15;6.53;;;4.30;;
14740;SDS011;7462;53.530;9.414;2022-10-16T05:31:43;5.97;;;4.77;;
14740;SDS011;7462;53.530;9.414;2022-10-16T05:34:13;8.80;;;4.57;;
14740;SDS011;7462;53.530;9.414;2022-10-16T05:36:41;5.90;;;4.50;;
14740;SDS011;7462;53.530;9.414;2022-10-16T05:39:11;8.80;;;5.37;;
14740;SDS011;7462;53.530;9.414;2022-10-16T05:41:41;7.37;;;5.50;;
14740;SDS011;7462;53.530;9.414;2022-10-16T05:44:09;9.30;;;6.30;;
14740;SDS011;7462;53.530;9.414;2022-10-16T05:46:37;8.40;;;6.10;;
14740;SDS011;7462;53.530;9.414;2022-10-16T05:49:05;7.93;;;5.90;;
14740;SDS011;7462;53.530;9.414;2022-10-16T05:51:34;10.03;;;6.40;;
14740;SDS011;7462;53.530;9.414;2022-10-16T05:54:02;10.43;;;6.27;;
14740;SDS011;7462;53.530;9.414;2022-10-16T05:56:30;8.43;;;6.27;;
14740;SDS011;7462;53.530;9.414;2022-10-16T05:58:58;9.33;;;6.70;;
14740;SDS011;7462;53.530;9.414;2022-10-16T06:01:26;11.13;;;6.73;;
14740;SDS011;7462;53.530;9.414;2022-10-16T06:03:54;8.07;;;6.73;;
14740;SDS011;7462;53.530;9.414;2022-10-16T06:06:24;8.70;;;5.87;;
14740;SDS011;7462;53.530;9.414;2022-10-16T06:08:55;11.17;;;7.10;;
14740;SDS011;7462;53.530;9.414;2022-10-16T06:11:26;8.50;;;6.90;;
14740;SDS011;7462;53.530;9.414;2022-10-16T06:13:56;11.23;;;6.80;;
14740;SDS011;7462;53.530;9.414;2022-10-16T06:16:28;11.00;;;6.80;;
14740;SDS011;7462;53.530;9.414;2022-10-16T06:18:56;9.40;;;6.63;;
14740;SDS011;7462;53.530;9.414;2022-10-16T06:21:26;10.77;;;7.27;;
14740;SDS011;7462;53.530;9.414;2022-10-16T06:23:56;9.20;;;7.17;;
14740;SDS011;7462;53.530;9.414;2022-10-16T06:26:26;10.80;;;6.97;;
14740;SDS011;7462;53.530;9.414;2022-10-16T06:28:55;8.63;;;7.20;;
14740;SDS011;7462;53.530;9.414;2022-10-16T06:31:25;9.37;;;7.23;;
14740;SDS011;7462;53.530;9.414;2022-10-16T06:33:56;9.27;;;7.10;;
14740;SDS011;7462;53.530;9.414;2022-10-16T06:36:25;9.17;;;7.53;;
14740;SDS011;7462;53.530;9.414;2022-10-16T06:38:54;9.73;;;7.33;;
14740;SDS011;7462;53.530;9.414;2022-10-16T06:41:23;13.27;;;9.40;;
14740;SDS011;7462;53.530;9.414;2022-10-16T06:43:51;10.37;;;8.00;;
14740;SDS011;7462;53.530;9.414;2022-10-16T06:46:20;11.37;;;8.07;;
14740;SDS011;7462;53.530;9.414;2022-10-16T06:48:50;9.97;;;8.20;;
14740;SDS011;7462;53.530;9.414;2022-10-16T06:51:18;13.40;;;8.97;;
14740;SDS011;7462;53.530;9.414;2022-10-16T06:53:48;17.20;;;11.00;;
14740;SDS011;7462;53.530;9.414;2022-10-16T06:56:35;12.17;;;9.60;;
14740;SDS011;7462;53.530;9.414;2022-10-16T06:59:03;15.10;;;10.27;;
14740;SDS011;7462;53.530;9.414;2022-10-16T07:01:32;12.93;;;8.53;;
14740;SDS011;7462;53.530;9.414;2022-10-16T07:04:00;9.40;;;8.40;;
14740;SDS011;7462;53.530;9.414;2022-10-16T07:06:30;9.83;;;7.43;;
14740;SDS011;7462;53.530;9.414;2022-10-16T07:09:01;10.57;;;8.30;;
14740;SDS011;7462;53.530;9.414;2022-10-16T07:11:31;11.93;;;7.80;;
14740;SDS011;7462;53.530;9.414;2022-10-16T07:14:01;9.37;;;7.53;;
14740;SDS011;7462;53.530;9.414;2022-10-16T07:16:30;13.30;;;7.53;;
14740;SDS011;7462;53.530;9.414;2022-10-16T07:19:00;10.80;;;6.93;;
14740;SDS011;7462;53.530;9.414;2022-10-16T07:21:30;10.07;;;6.83;;
14740;SDS011;7462;53.530;9.414;2022-10-16T07:24:02;10.63;;;6.33;;
14740;SDS011;7462;53.530;9.414;2022-10-16T07:26:33;10.53;;;6.90;;
14740;SDS011;7462;53.530;9.414;2022-10-16T07:29:04;8.60;;;7.20;;
14740;SDS011;7462;53.530;9.414;2022-10-16T07:31:32;8.43;;;7.07;;
14740;SDS011;7462;53.530;9.414;2022-10-16T07:34:00;9.93;;;7.17;;
14740;SDS011;7462;53.530;9.414;2022-10-16T07:36:28;10.23;;;6.73;;
14740;SDS011;7462;53.530;9.414;2022-10-16T07:38:57;8.17;;;6.23;;
14740;SDS011;7462;53.530;9.414;2022-10-16T07:41:26;10.47;;;6.47;;
14740;SDS011;7462;53.530;9.414;2022-10-16T07:43:55;8.13;;;6.27;;
14740;SDS011;7462;53.530;9.414;2022-10-16T07:46:27;8.83;;;7.00;;
14740;SDS011;7462;53.530;9.414;2022-10-16T07:48:56;9.37;;;6.53;;
14740;SDS011;7462;53.530;9.414;2022-10-16T07:51:24;7.30;;;6.50;;
14740;SDS011;7462;53.530;9.414;2022-10-16T07:53:53;9.33;;;6.47;;
14740;SDS011;7462;53.530;9.414;2022-10-16T07:56:22;8.37;;;6.93;;
14740;SDS011;7462;53.530;9.414;2022-10-16T07:58:50;7.23;;;6.50;;
14740;SDS011;7462;53.530;9.414;2022-10-16T08:01:19;9.90;;;7.07;;
14740;SDS011;7462;53.530;9.414;2022-10-16T08:03:49;7.70;;;6.83;;
14740;SDS011;7462;53.530;9.414;2022-10-16T08:06:19;7.97;;;6.57;;
14740;SDS011;7462;53.530;9.414;2022-10-16T08:08:53;6.73;;;5.83;;
14740;SDS011;7462;53.530;9.414;2022-10-16T08:11:22;8.53;;;5.90;;
14740;SDS011;7462;53.530;9.414;2022-10-16T08:13:50;6.63;;;5.80;;
14740;SDS011;7462;53.530;9.414;2022-10-16T08:16:18;7.70;;;5.77;;
14740;SDS011;7462;53.530;9.414;2022-10-16T08:18:48;6.13;;;5.27;;
14740;SDS011;7462;53.530;9.414;2022-10-16T08:21:18;7.47;;;5.60;;
14740;SDS011;7462;53.530;9.414;2022-10-16T08:23:47;7.23;;;5.17;;
14740;SDS011;7462;53.530;9.414;2022-10-16T08:26:22;7.10;;;5.33;;
14740;SDS011;7462;53.530;9.414;2022-10-16T08:28:50;7.23;;;4.50;;
14740;SDS011;7462;53.530;9.414;2022-10-16T08:31:18;7.27;;;5.43;;
14740;SDS011;7462;53.530;9.414;2022-10-16T08:33:47;6.97;;;4.50;;
14740;SDS011;7462;53.530;9.414;2022-10-16T08:36:18;6.77;;;4.70;;
14740;SDS011;7462;53.530;9.414;2022-10-16T08:38:47;6.47;;;4.67;;
14740;SDS011;7462;53.530;9.414;2022-10-16T08:44:26;7.63;;;4.70;;
14740;SDS011;7462;53.530;9.414;2022-10-16T08:47:13;4.73;;;4.33;;
14740;SDS011;7462;53.530;9.414;2022-10-16T08:49:50;6.40;;;4.80;;
14740;SDS011;7462;53.530;9.414;2022-10-16T08:52:23;9.50;;;4.87;;
14740;SDS011;7462;53.530;9.414;2022-10-16T08:54:56;6.80;;;4.30;;
14740;SDS011;7462;53.530;9.414;2022-10-16T08:57:24;5.40;;;3.67;;
14740;SDS011;7462;53.530;9.414;2022-10-16T08:59:53;6.07;;;3.93;;
14740;SDS011;7462;53.530;9.414;2022-10-16T09:02:28;5.23;;;4.10;;
14740;SDS011;7462;53.530;9.414;2022-10-16T09:05:04;6.40;;;4.10;;
14740;SDS011;7462;53.530;9.414;2022-10-16T09:07:54;6.07;;;3.90;;
14740;SDS011;7462;53.530;9.414;2022-10-16T09:10:35;5.90;;;3.63;;
14740;SDS011;7462;53.530;9.414;2022-10-16T09:13:14;6.23;;;3.70;;
14740;SDS011;7462;53.530;9.414;2022-10-16T09:15:49;4.77;;;3.33;;
14740;SDS011;7462;53.530;9.414;2022-10-16T09:18:24;8.30;;;3.57;;
14740;SDS011;7462;53.530;9.414;2022-10-16T09:21:01;4.93;;;3.27;;
14740;SDS011;7462;53.530;9.414;2022-10-16T09:23:36;3.70;;;3.10;;
14740;SDS011;7462;53.530;9.414;2022-10-16T09:26:05;6.90;;;3.33;;
14740;SDS011;7462;53.530;9.414;2022-10-16T09:28:39;6.13;;;2.60;;
14740;SDS011;7462;53.530;9.414;2022-10-16T09:31:10;4.13;;;3.03;;
14740;SDS011;7462;53.530;9.414;2022-10-16T09:33:43;6.70;;;3.13;;
14740;SDS011;7462;53.530;9.414;2022-10-16T09:36:16;5.77;;;3.40;;
14740;SDS011;7462;53.530;9.414;2022-10-16T09:38:46;6.23;;;3.17;;
14740;SDS011;7462;53.530;9.414;2022-10-16T09:41:19;5.20;;;3.03;;
14740;SDS011;7462;53.530;9.414;2022-10-16T09:43:52;5.87;;;3.10;;
14740;SDS011;7462;53.530;9.414;2022-10-16T09:46:24;8.37;;;2.97;;
14740;SDS011;7462;53.530;9.414;2022-10-16T09:48:55;5.57;;;2.77;;
14740;SDS011;7462;53.530;9.414;2022-10-16T09:51:26;3.53;;;2.63;;
14740;SDS011;7462;53.530;9.414;2022-10-16T09:53:57;3.70;;;2.80;;
14740;SDS011;7462;53.530;9.414;2022-10-16T09:56:27;4.93;;;2.90;;
14740;SDS011;7462;53.530;9.414;2022-10-16T09:58:57;3.80;;;2.53;;
14740;SDS011;7462;53.530;9.414;2022-10-16T10:01:28;5.70;;;2.60;;
14740;SDS011;7462;53.530;9.414;2022-10-16T10:03:58;4.33;;;2.53;;
14740;SDS011;7462;53.530;9.414;2022-10-16T10:06:32;2.93;;;2.17;;
14740;SDS011;7462;53.530;9.414;2022-10-16T10:09:05;5.70;;;2.70;;
14740;SDS011;7462;53.530;9.414;2022-10-16T10:11:49;8.27;;;3.33;;
14740;SDS011;7462;53.530;9.414;2022-10-16T10:14:20;5.60;;;2.50;;
14740;SDS011;7462;53.530;9.414;2022-10-16T10:16:51;4.53;;;2.20;;
14740;SDS011;7462;53.530;9.414;2022-10-16T10:19:20;7.53;;;2.53;;
14740;SDS011;7462;53.530;9.414;2022-10-16T10:21:57;6.03;;;2.20;;
14740;SDS011;7462;53.530;9.414;2022-10-16T10:24:25;4.43;;;2.10;;
14740;SDS011;7462;53.530;9.414;2022-10-16T10:26:54;6.37;;;2.10;;
14740;SDS011;7462;53.530;9.414;2022-10-16T10:29:32;5.17;;;2.10;;
14740;SDS011;7462;53.530;9.414;2022-10-16T10:32:16;6.53;;;2.03;;
14740;SDS011;7462;53.530;9.414;2022-10-16T10:34:56;3.63;;;1.70;;
14740;SDS011;7462;53.530;9.414;2022-10-16T10:37:43;4.73;;;1.80;;
14740;SDS011;7462;53.530;9.414;2022-10-16T10:40:24;4.30;;;1.70;;
14740;SDS011;7462;53.530;9.414;2022-10-16T10:43:02;2.70;;;1.47;;
14740;SDS011;7462;53.530;9.414;2022-10-16T10:45:38;5.77;;;1.47;;
14740;SDS011;7462;53.530;9.414;2022-10-16T10:48:23;5.83;;;1.63;;
14740;SDS011;7462;53.530;9.414;2022-10-16T10:51:10;2.80;;;1.30;;
14740;SDS011;7462;53.530;9.414;2022-10-16T10:53:44;4.43;;;1.67;;
14740;SDS011;7462;53.530;9.414;2022-10-16T10:56:20;4.37;;;1.37;;
14740;SDS011;7462;53.530;9.414;2022-10-16T10:59:06;7.10;;;2.20;;
14740;SDS011;7462;53.530;9.414;2022-10-16T11:01:52;2.20;;;1.20;;
14740;SDS011;7462;53.530;9.414;2022-10-16T11:04:34;6.10;;;1.30;;
14740;SDS011;7462;53.530;9.414;2022-10-16T11:07:15;2.40;;;1.23;;
14740;SDS011;7462;53.530;9.414;2022-10-16T11:09:49;2.67;;;0.97;;
14740;SDS011;7462;53.530;9.414;2022-10-16T11:12:21;5.53;;;1.33;;
14740;SDS011;7462;53.530;9.414;2022-10-16T11:14:54;3.87;;;1.33;;
14740;SDS011;7462;53.530;9.414;2022-10-16T11:17:28;2.97;;;1.27;;
14740;SDS011;7462;53.530;9.414;2022-10-16T11:20:02;2.40;;;1.30;;
14740;SDS011;7462;53.530;9.414;2022-10-16T11:22:40;3.30;;;1.30;;
14740;SDS011;7462;53.530;9.414;2022-10-16T11:25:15;3.33;;;1.17;;
14740;SDS011;7462;53.530;9.414;2022-10-16T11:27:49;2.77;;;1.00;;
14740;SDS011;7462;53.530;9.414;2022-10-16T11:30:22;3.40;;;1.07;;
14740;SDS011;7462;53.530;9.414;2022-10-16T11:33:00;3.17;;;1.10;;
14740;SDS011;7462;53.530;9.414;2022-10-16T11:35:42;2.63;;;1.13;;
14740;SDS011;7462;53.530;9.414;2022-10-16T11:38:16;4.17;;;1.20;;
14740;SDS011;7462;53.530;9.414;2022-10-16T11:40:53;2.77;;;0.97;;
14740;SDS011;7462;53.530;9.414;2022-10-16T11:43:27;1.93;;;0.80;;
14740;SDS011;7462;53.530;9.414;2022-10-16T11:46:01;2.67;;;1.10;;
14740;SDS011;7462;53.530;9.414;2022-10-16T11:48:36;4.77;;;1.43;;
14740;SDS011;7462;53.530;9.414;2022-10-16T11:51:11;3.63;;;1.30;;
14740;SDS011;7462;53.530;9.414;2022-10-16T11:53:49;5.20;;;1.20;;
14740;SDS011;7462;53.530;9.414;2022-10-16T11:56:23;4.40;;;1.20;;
14740;SDS011;7462;53.530;9.414;2022-10-16T11:58:54;3.33;;;1.00;;
14740;SDS011;7462;53.530;9.414;2022-10-16T12:01:28;3.40;;;1.00;;
14740;SDS011;7462;53.530;9.414;2022-10-16T12:04:12;5.70;;;1.23;;
14740;SDS011;7462;53.530;9.414;2022-10-16T12:06:47;3.43;;;0.90;;
14740;SDS011;7462;53.530;9.414;2022-10-16T12:09:20;5.53;;;1.20;;
14740;SDS011;7462;53.530;9.414;2022-10-16T12:11:53;3.73;;;1.20;;
14740;SDS011;7462;53.530;9.414;2022-10-16T12:14:32;3.57;;;1.30;;
14740;SDS011;7462;53.530;9.414;2022-10-16T12:17:23;4.57;;;1.20;;
14740;SDS011;7462;53.530;9.414;2022-10-16T12:19:57;3.00;;;1.17;;
14740;SDS011;7462;53.530;9.414;2022-10-16T12:22:27;4.70;;;1.60;;
14740;SDS011;7462;53.530;9.414;2022-10-16T12:24:57;3.57;;;1.10;;
14740;SDS011;7462;53.530;9.414;2022-10-16T12:27:28;4.27;;;1.40;;
14740;SDS011;7462;53.530;9.414;2022-10-16T12:29:58;3.40;;;1.17;;
14740;SDS011;7462;53.530;9.414;2022-10-16T12:32:29;4.90;;;1.20;;
14740;SDS011;7462;53.530;9.414;2022-10-16T12:35:17;3.77;;;1.20;;
14740;SDS011;7462;53.530;9.414;2022-10-16T12:37:47;5.10;;;1.33;;
14740;SDS011;7462;53.530;9.414;2022-10-16T12:40:22;4.87;;;1.20;;
14740;SDS011;7462;53.530;9.414;2022-10-16T12:42:55;8.03;;;1.87;;
14740;SDS011;7462;53.530;9.414;2022-10-16T12:45:25;6.53;;;1.40;;
14740;SDS011;7462;53.530;9.414;2022-10-16T12:47:57;4.37;;;1.40;;
14740;SDS011;7462;53.530;9.414;2022-10-16T12:50:28;4.33;;;1.63;;
14740;SDS011;7462;53.530;9.414;2022-10-16T12:52:59;3.23;;;1.43;;
14740;SDS011;7462;53.530;9.414;2022-10-16T12:55:31;4.47;;;1.40;;
14740;SDS011;7462;53.530;9.414;2022-10-16T12:58:09;4.93;;;1.30;;
14740;SDS011;7462;53.530;9.414;2022-10-16T13:00:50;4.40;;;1.50;;
14740;SDS011;7462;53.530;9.414;2022-10-16T13:03:27;5.47;;;1.33;;
14740;SDS011;7462;53.530;9.414;2022-10-16T13:06:10;4.40;;;1.47;;
14740;SDS011;7462;53.530;9.414;2022-10-16T13:08:53;6.20;;;1.50;;
14740;SDS011;7462;53.530;9.414;2022-10-16T13:11:38;3.80;;;1.20;;
14740;SDS011;7462;53.530;9.414;2022-10-16T13:14:38;5.50;;;2.13;;
14740;SDS011;7462;53.530;9.414;2022-10-16T13:17:25;6.53;;;1.33;;
14740;SDS011;7462;53.530;9.414;2022-10-16T13:20:00;3.77;;;1.33;;
14740;SDS011;7462;53.530;9.414;2022-10-16T13:22:39;6.40;;;1.50;;
14740;SDS011;7462;53.530;9.414;2022-10-16T13:25:25;4.00;;;1.20;;
14740;SDS011;7462;53.530;9.414;2022-10-16T13:28:00;4.03;;;1.30;;
14740;SDS011;7462;53.530;9.414;2022-10-16T13:30:31;2.53;;;1.07;;
14740;SDS011;7462;53.530;9.414;2022-10-16T13:33:04;3.83;;;1.23;;
14740;SDS011;7462;53.530;9.414;2022-10-16T13:35:47;3.73;;;1.40;;
14740;SDS011;7462;53.530;9.414;2022-10-16T13:38:17;4.90;;;1.60;;
14740;SDS011;7462;53.530;9.414;2022-10-16T13:40:53;3.87;;;1.10;;
14740;SDS011;7462;53.530;9.414;2022-10-16T13:43:26;2.90;;;1.17;;
14740;SDS011;7462;53.530;9.414;2022-10-16T13:46:01;5.67;;;1.67;;
14740;SDS011;7462;53.530;9.414;2022-10-16T13:48:31;3.00;;;1.33;;
14740;SDS011;7462;53.530;9.414;2022-10-16T13:51:01;4.97;;;1.40;;
14740;SDS011;7462;53.530;9.414;2022-10-16T13:53:31;4.93;;;1.40;;
14740;SDS011;7462;53.530;9.414;2022-10-16T13:56:01;6.07;;;1.37;;
14740;SDS011;7462;53.530;9.414;2022-10-16T13:58:31;4.37;;;1.43;;
14740;SDS011;7462;53.530;9.414;2022-10-16T14:01:01;3.73;;;1.30;;
14740;SDS011;7462;53.530;9.414;2022-10-16T14:03:32;6.03;;;1.30;;
14740;SDS011;7462;53.530;9.414;2022-10-16T14:06:05;6.33;;;1.20;;
14740;SDS011;7462;53.530;9.414;2022-10-16T14:08:40;5.30;;;1.57;;
14740;SDS011;7462;53.530;9.414;2022-10-16T14:11:10;5.43;;;1.60;;
14740;SDS011;7462;53.530;9.414;2022-10-16T14:13:39;3.93;;;1.50;;
14740;SDS011;7462;53.530;9.414;2022-10-16T14:16:16;3.30;;;1.20;;
14740;SDS011;7462;53.530;9.414;2022-10-16T14:18:48;3.43;;;1.27;;
14740;SDS011;7462;53.530;9.414;2022-10-16T14:21:23;4.40;;;1.60;;
14740;SDS011;7462;53.530;9.414;2022-10-16T14:23:51;5.47;;;1.50;;
14740;SDS011;7462;53.530;9.414;2022-10-16T14:26:20;5.13;;;1.43;;
14740;SDS011;7462;53.530;9.414;2022-10-16T14:29:01;3.50;;;1.20;;
14740;SDS011;7462;53.530;9.414;2022-10-16T14:31:39;6.13;;;1.40;;
14740;SDS011;7462;53.530;9.414;2022-10-16T14:34:27;5.47;;;1.33;;
14740;SDS011;7462;53.530;9.414;2022-10-16T14:36:58;6.07;;;1.67;;
14740;SDS011;7462;53.530;9.414;2022-10-16T14:39:30;5.47;;;1.40;;
14740;SDS011;7462;53.530;9.414;2022-10-16T14:41:59;6.33;;;1.40;;
14740;SDS011;7462;53.530;9.414;2022-10-16T14:44:28;5.90;;;1.40;;
14740;SDS011;7462;53.530;9.414;2022-10-16T14:47:08;4.57;;;1.20;;
14740;SDS011;7462;53.530;9.414;2022-10-16T14:49:40;5.43;;;1.50;;
14740;SDS011;7462;53.530;9.414;2022-10-16T14:52:09;3.87;;;1.30;;
14740;SDS011;7462;53.530;9.414;2022-10-16T14:54:39;6.30;;;1.23;;
14740;SDS011;7462;53.530;9.414;2022-10-16T14:57:13;3.70;;;1.30;;
14740;SDS011;7462;53.530;9.414;2022-10-16T14:59:44;4.57;;;1.50;;
14740;SDS011;7462;53.530;9.414;2022-10-16T15:02:18;3.17;;;1.10;;
14740;SDS011;7462;53.530;9.414;2022-10-16T15:04:52;4.37;;;1.20;;
14740;SDS011;7462;53.530;9.414;2022-10-16T15:07:20;6.27;;;1.60;;
14740;SDS011;7462;53.530;9.414;2022-10-16T15:09:49;4.37;;;1.00;;
14740;SDS011;7462;53.530;9.414;2022-10-16T15:12:17;4.60;;;1.43;;
14740;SDS011;7462;53.530;9.414;2022-10-16T15:14:45;4.00;;;1.20;;
14740;SDS011;7462;53.530;9.414;2022-10-16T15:17:13;6.07;;;1.57;;
14740;SDS011;7462;53.530;9.414;2022-10-16T15:19:48;5.93;;;1.97;;
14740;SDS011;7462;53.530;9.414;2022-10-16T15:22:17;5.13;;;1.17;;
14740;SDS011;7462;53.530;9.414;2022-10-16T15:24:45;4.40;;;1.47;;
14740;SDS011;7462;53.530;9.414;2022-10-16T15:27:13;7.10;;;1.77;;
14740;SDS011;7462;53.530;9.414;2022-10-16T15:29:41;5.90;;;1.23;;
14740;SDS011;7462;53.530;9.414;2022-10-16T15:32:09;4.10;;;1.40;;